Time;durP1;ratioP1;P1;durP2;ratioP2;P2;SDS_P1;SDS_P2;PMS_P1;PMS_P2;Temp;Humidity;BMP_temperature;BMP_pressure;BME280_temperature;BME280_humidity;BME280_pressure;Samples;Min_cycle;Max_cycle;Signal;HPM_P1;HPM_P2
2021/12/28 00:01:26;;;;;;;116.20;71.57;;;;;;;4.46;81.26;99554.47;5087138;28;20028;-20
2021/12/28 00:03:51;;;;;;;128.93;79.15;;;;;;;4.45;81.80;99536.97;5087451;28;20039;-21
2021/12/28 00:06:17;;;;;;;137.88;78.13;;;;;;;4.38;81.68;99535.09;5087547;28;20064;-21
2021/12/28 00:08:43;;;;;;;142.15;79.43;;;;;;;4.73;79.87;99537.78;5087339;28;20032;-20
2021/12/28 00:11:08;;;;;;;136.25;80.18;;;;;;;4.75;79.58;99546.31;5087274;28;20074;-20
2021/12/28 00:13:34;;;;;;;137.30;80.88;;;;;;;4.66;80.98;99551.94;5087067;28;20059;-20
2021/12/28 00:16:13;;;;;;;146.57;84.18;;;;;;;4.93;80.22;99553.75;5087317;28;20479;-21
2021/12/28 00:18:38;;;;;;;148.68;86.43;;;;;;;4.80;79.94;99556.28;5087315;28;20036;-21
2021/12/28 00:21:05;;;;;;;137.38;78.35;;;;;;;3.98;81.06;99550.59;5069253;28;20027;-20
2021/12/28 00:23:38;;;;;;;137.65;81.15;;;;;;;4.32;79.95;99564.09;5086953;28;20145;-21
2021/12/28 00:26:05;;;;;;;142.15;78.43;;;;;;;4.20;80.17;99572.50;5053663;28;20036;-21
2021/12/28 00:28:30;;;;;;;127.30;74.72;;;;;;;4.31;77.70;99581.75;5067204;28;20037;-22
2021/12/28 00:30:56;;;;;;;118.57;68.28;;;;;;;3.31;80.17;99566.69;5070942;28;20048;-21
2021/12/28 00:33:22;;;;;;;154.40;73.20;;;;;;;3.77;80.10;99582.22;5071088;28;20051;-20
2021/12/28 00:35:48;;;;;;;162.98;86.25;;;;;;;4.02;79.24;99587.97;5070820;28;20079;-21
2021/12/28 00:38:18;;;;;;;262.85;98.40;;;;;;;3.76;80.30;99575.31;5070606;28;20432;-21
2021/12/28 00:40:44;;;;;;;181.60;81.60;;;;;;;3.76;80.00;99575.31;5070816;28;20086;-21
2021/12/28 00:43:09;;;;;;;166.18;86.65;;;;;;;3.93;78.34;99579.34;5070669;28;20950;-21
2021/12/28 00:45:35;;;;;;;217.35;94.13;;;;;;;3.82;79.57;99580.69;5070467;28;20550;-21
2021/12/28 00:48:00;;;;;;;240.88;92.20;;;;;;;3.81;79.71;99584.31;5052224;28;20036;-20
2021/12/28 00:50:26;;;;;;;246.75;86.35;;;;;;;3.78;80.25;99583.84;5052683;28;20509;-21
2021/12/28 00:52:52;;;;;;;200.63;89.80;;;;;;;4.13;79.76;99573.47;5070102;28;20021;-21
2021/12/28 00:55:18;;;;;;;195.02;87.55;;;;;;;3.67;81.02;99544.78;5070419;28;20502;-20
2021/12/28 00:57:43;;;;;;;169.75;78.72;;;;;;;3.83;81.42;99581.47;5069961;28;20090;-21
2021/12/28 01:00:12;;;;;;;289.02;90.40;;;;;;;3.82;81.52;99579.84;5070272;28;20036;-20
2021/12/28 01:02:38;;;;;;;214.23;80.70;;;;;;;3.72;82.55;99576.69;5052557;28;20038;-20
2021/12/28 01:05:05;;;;;;;232.10;75.07;;;;;;;3.49;83.89;99568.94;5070434;28;20036;-21
2021/12/28 01:07:30;;;;;;;156.18;75.68;;;;;;;3.66;83.01;99583.53;5070474;28;20035;-21
2021/12/28 01:09:56;;;;;;;273.13;72.90;;;;;;;3.47;83.37;99598.09;5070063;28;20033;-21
2021/12/28 01:12:21;;;;;;;195.27;77.32;;;;;;;3.65;81.80;99596.91;5069842;28;20110;-20
2021/12/28 01:14:47;;;;;;;140.10;72.20;;;;;;;3.79;80.90;99590.78;5069951;28;20033;-20
2021/12/28 01:17:12;;;;;;;161.00;70.47;;;;;;;3.40;81.61;99581.41;5069731;28;20028;-20
2021/12/28 01:19:38;;;;;;;137.48;70.45;;;;;;;3.25;82.20;99572.69;5035038;28;20043;-20
2021/12/28 01:22:03;;;;;;;119.47;67.57;;;;;;;3.20;83.55;99581.94;5069758;28;20078;-21
2021/12/28 01:24:30;;;;;;;121.18;71.25;;;;;;;3.62;81.81;99580.44;5052072;28;20067;-21
2021/12/28 01:26:55;;;;;;;170.90;69.55;;;;;;;3.18;85.52;99569.97;5070119;28;20063;-20
2021/12/28 01:29:21;;;;;;;167.07;68.68;;;;;;;3.44;85.58;99577.41;5069924;28;20088;-21
2021/12/28 01:31:46;;;;;;;121.00;63.03;;;;;;;3.06;85.19;99566.16;5069397;28;20105;-21
2021/12/28 01:34:13;;;;;;;109.53;63.70;;;;;;;2.69;85.69;99571.31;5069465;28;20397;-21
2021/12/28 01:36:38;;;;;;;111.75;64.47;;;;;;;2.74;86.45;99571.59;5069545;28;20519;-21
2021/12/28 01:39:05;;;;;;;114.57;67.45;;;;;;;2.99;85.96;99568.72;5069587;28;20451;-25
2021/12/28 01:41:31;;;;;;;109.95;65.05;;;;;;;3.08;85.41;99562.34;5068686;28;20028;-20
2021/12/28 01:43:58;;;;;;;121.38;66.00;;;;;;;2.94;85.24;99549.97;5034918;28;20028;-20
2021/12/28 01:46:23;;;;;;;130.02;74.65;;;;;;;3.29;83.61;99552.88;5051431;28;20036;-21
2021/12/28 01:48:49;;;;;;;128.90;75.93;;;;;;;3.44;82.20;99539.69;5069410;28;20063;-21
2021/12/28 01:51:19;;;;;;;143.82;85.07;;;;;;;3.59;81.26;99537.81;5069114;28;20029;-20
2021/12/28 01:53:45;;;;;;;119.90;68.80;;;;;;;3.75;80.23;99563.13;5069186;28;20039;-21
2021/12/28 01:56:20;;;;;;;120.22;69.50;;;;;;;3.33;80.40;99559.41;5069137;28;20522;-21
2021/12/28 01:58:45;;;;;;;123.43;70.03;;;;;;;3.16;81.18;99575.41;5069411;28;20044;-21
2021/12/28 02:01:11;;;;;;;119.13;66.30;;;;;;;2.67;81.01;99560.13;5069049;28;20032;-20
2021/12/28 02:03:37;;;;;;;122.90;69.57;;;;;;;3.09;80.26;99571.06;5068751;28;20056;-21
2021/12/28 02:06:03;;;;;;;117.05;67.40;;;;;;;3.26;79.81;99569.06;5069082;28;20059;-21
2021/12/28 02:08:28;;;;;;;117.85;65.50;;;;;;;3.04;79.97;99558.44;5068985;28;20119;-21
2021/12/28 02:10:55;;;;;;;117.10;66.32;;;;;;;2.55;80.46;99558.94;5051002;28;20118;-20
2021/12/28 02:13:20;;;;;;;115.30;61.40;;;;;;;1.80;81.91;99568.44;5068894;28;20768;-21
2021/12/28 02:15:46;;;;;;;110.57;60.03;;;;;;;1.89;81.83;99562.09;5050690;28;20040;-20
2021/12/28 02:18:12;;;;;;;158.38;61.13;;;;;;;1.62;83.71;99550.28;5068566;28;20037;-21
2021/12/28 02:20:38;;;;;;;120.57;61.17;;;;;;;2.11;81.15;99533.38;5068832;28;20037;-20
2021/12/28 02:23:03;;;;;;;128.65;65.45;;;;;;;2.41;81.03;99556.13;5068549;28;20027;-21
2021/12/28 02:25:31;;;;;;;128.18;64.93;;;;;;;2.45;81.04;99547.84;5068295;28;20042;-21
2021/12/28 02:27:57;;;;;;;121.82;64.82;;;;;;;2.33;81.05;99524.63;5068684;28;20033;-21
2021/12/28 02:30:22;;;;;;;110.93;62.08;;;;;;;2.81;79.82;99551.44;5050165;28;20056;-20
2021/12/28 02:32:48;;;;;;;113.13;64.68;;;;;;;2.96;79.47;99548.81;5068335;28;20075;-21
2021/12/28 02:35:19;;;;;;;99.85;59.92;;;;;;;2.91;79.46;99551.19;5068371;28;20038;-20
2021/12/28 02:37:44;;;;;;;99.70;59.05;;;;;;;3.05;80.35;99535.56;5068051;28;20074;-21
2021/12/28 02:40:11;;;;;;;102.50;59.58;;;;;;;3.05;79.69;99530.28;5050467;28;20432;-21
2021/12/28 02:42:37;;;;;;;99.07;60.60;;;;;;;2.67;81.53;99533.81;5068315;28;20079;-21
2021/12/28 02:45:09;;;;;;;100.20;59.47;;;;;;;3.03;81.38;99559.44;5068132;28;20071;-21
2021/12/28 02:47:36;;;;;;;96.85;57.75;;;;;;;3.32;80.02;99563.06;5068087;28;20038;-20
2021/12/28 02:50:03;;;;;;;97.70;57.83;;;;;;;2.97;81.69;99555.72;5068278;28;20033;-21
2021/12/28 02:52:31;;;;;;;98.25;58.45;;;;;;;3.03;80.55;99538.38;5067127;28;20033;-20
2021/12/28 02:54:56;;;;;;;104.43;60.53;;;;;;;3.00;81.05;99554.53;5068078;28;20025;-21
2021/12/28 02:57:22;;;;;;;95.93;58.35;;;;;;;2.46;83.81;99560.84;5067929;28;20039;-21
2021/12/28 02:59:49;;;;;;;90.95;57.25;;;;;;;3.11;82.08;99567.25;5049784;28;20028;-21
2021/12/28 03:02:14;;;;;;;92.22;56.80;;;;;;;2.91;82.09;99561.72;5067908;28;20116;-20
2021/12/28 03:04:40;;;;;;;123.20;70.47;;;;;;;2.90;82.66;99560.09;5068082;28;20040;-21
2021/12/28 03:07:05;;;;;;;160.30;92.00;;;;;;;2.86;82.72;99561.44;5067971;28;20028;-20
2021/12/28 03:09:31;;;;;;;134.52;78.53;;;;;;;2.96;82.84;99558.53;5049826;28;20040;-21
2021/12/28 03:11:56;;;;;;;139.35;73.85;;;;;;;2.94;82.33;99552.63;5067739;28;20028;-22
2021/12/28 03:14:21;;;;;;;134.57;75.18;;;;;;;3.09;82.07;99547.38;5068163;28;20032;-21
2021/12/28 03:16:47;;;;;;;143.15;80.22;;;;;;;3.28;81.83;99551.25;5067674;28;20039;-21
2021/12/28 03:19:12;;;;;;;126.35;74.97;;;;;;;3.07;82.82;99544.09;5067855;28;20447;-21
2021/12/28 03:21:40;;;;;;;125.20;72.93;;;;;;;3.37;82.37;99545.69;5067304;28;20024;-21
2021/12/28 03:24:06;;;;;;;129.32;75.25;;;;;;;3.72;81.81;99537.13;5067805;28;20032;-20
2021/12/28 03:26:31;;;;;;;119.75;70.43;;;;;;;3.61;81.62;99543.72;5067600;28;20039;-21
2021/12/28 03:28:57;;;;;;;117.43;70.13;;;;;;;3.61;81.90;99546.34;5067517;28;20064;-21
2021/12/28 03:31:22;;;;;;;105.55;64.63;;;;;;;3.45;82.82;99525.47;5067658;28;20392;-22
2021/12/28 03:33:49;;;;;;;129.23;75.80;;;;;;;3.34;84.60;99537.34;5067732;28;20029;-21
2021/12/28 03:36:15;;;;;;;136.05;80.68;;;;;;;3.19;85.42;99538.16;5067489;28;20035;-21
2021/12/28 03:38:41;;;;;;;117.10;71.70;;;;;;;3.19;85.02;99509.19;5067481;28;20028;-21
2021/12/28 03:41:07;;;;;;;149.40;89.05;;;;;;;3.24;85.22;99503.34;5067406;28;20412;-21
2021/12/28 03:43:37;;;;;;;127.60;75.10;;;;;;;3.59;83.74;99522.78;5067164;28;20153;-21
2021/12/28 03:46:02;;;;;;;257.27;136.07;;;;;;;3.69;83.31;99516.41;5049563;28;20036;-21
2021/12/28 03:48:28;;;;;;;342.48;170.00;;;;;;;3.62;83.51;99530.34;5067335;28;20477;-21
2021/12/28 03:50:53;;;;;;;222.50;115.57;;;;;;;3.84;82.54;99533.00;5067582;28;20029;-21
2021/12/28 03:53:18;;;;;;;159.98;87.05;;;;;;;3.72;82.44;99531.84;5067325;28;20031;-21
2021/12/28 03:55:44;;;;;;;170.30;94.35;;;;;;;3.51;83.12;99541.38;5049086;28;20477;-20
2021/12/28 03:58:09;;;;;;;109.10;66.68;;;;;;;3.52;83.23;99521.94;5067196;28;20040;-21
2021/12/28 04:00:42;;;;;;;99.55;60.88;;;;;;;3.67;83.01;99542.97;5067457;28;20031;-21
2021/12/28 04:03:08;;;;;;;97.93;62.38;;;;;;;3.62;82.42;99543.53;5068090;28;20056;-21
2021/12/28 04:05:34;;;;;;;97.05;60.63;;;;;;;3.18;83.18;99530.44;5071178;28;20113;-21
2021/12/28 04:07:59;;;;;;;97.60;60.45;;;;;;;3.40;83.12;99524.22;5053724;28;20510;-21
2021/12/28 04:10:31;;;;;;;101.30;61.78;;;;;;;3.68;81.98;99535.88;5071376;28;20093;-21
2021/12/28 04:12:57;;;;;;;87.95;56.08;;;;;;;3.03;81.84;99553.38;5054245;28;20081;-20
2021/12/28 04:15:23;;;;;;;82.47;52.45;;;;;;;2.57;82.05;99523.53;5053038;28;20028;-23
2021/12/28 04:17:48;;;;;;;96.35;59.20;;;;;;;2.67;81.99;99557.50;5071029;28;20039;-21
2021/12/28 04:20:16;;;;;;;101.40;62.63;;;;;;;2.53;83.48;99559.13;5070964;28;20037;-21
2021/12/28 04:22:41;;;;;;;122.65;70.28;;;;;;;2.61;82.73;99550.31;5052795;28;20167;-20
2021/12/28 04:25:07;;;;;;;119.38;69.72;;;;;;;3.24;81.03;99549.97;5070862;28;20194;-21
2021/12/28 04:27:33;;;;;;;99.15;58.22;;;;;;;2.87;81.58;99562.25;5052460;28;20115;-21
2021/12/28 04:29:58;;;;;;;96.45;57.25;;;;;;;2.98;81.56;99572.31;5049638;28;20091;-21
2021/12/28 04:32:24;;;;;;;95.15;57.35;;;;;;;2.95;81.30;99556.91;5051116;28;20061;-21
2021/12/28 04:34:49;;;;;;;89.97;57.25;;;;;;;3.00;80.75;99549.25;5050898;28;20405;-21
2021/12/28 04:37:15;;;;;;;98.60;60.28;;;;;;;3.07;80.82;99550.19;5049467;28;20060;-20
2021/12/28 04:39:40;;;;;;;95.22;57.60;;;;;;;3.06;80.66;99559.06;5049135;28;20037;-20
2021/12/28 04:42:06;;;;;;;89.68;56.35;;;;;;;2.37;82.02;99549.56;5050531;28;20055;-21
2021/12/28 04:44:32;;;;;;;111.97;66.75;;;;;;;2.07;83.78;99563.66;5050605;28;20151;-21
2021/12/28 04:46:57;;;;;;;130.80;79.55;;;;;;;2.33;83.17;99539.56;5050459;28;20120;-21
2021/12/28 04:49:25;;;;;;;107.20;62.92;;;;;;;2.76;81.58;99548.53;5050656;28;20029;-21
2021/12/28 04:51:51;;;;;;;125.25;72.75;;;;;;;2.95;81.35;99564.81;5050289;28;20440;-21
2021/12/28 04:54:17;;;;;;;206.57;117.78;;;;;;;3.11;81.30;99561.97;5050536;28;20029;-21
2021/12/28 04:56:42;;;;;;;207.77;115.65;;;;;;;3.14;81.19;99561.59;5050435;28;20029;-20
2021/12/28 04:59:08;;;;;;;202.88;107.00;;;;;;;3.16;81.78;99559.59;5050306;28;20778;-21
2021/12/28 05:01:36;;;;;;;139.95;80.43;;;;;;;2.74;81.85;99494.44;5048762;28;20025;-21
2021/12/28 05:04:02;;;;;;;111.72;66.10;;;;;;;3.31;81.24;99567.50;5050405;28;20036;-21
2021/12/28 05:06:28;;;;;;;110.15;66.05;;;;;;;2.97;82.39;99578.59;5050137;28;20098;-21
2021/12/28 05:08:53;;;;;;;102.57;59.85;;;;;;;3.12;82.43;99582.03;5049050;28;20045;-21
2021/12/28 05:11:19;;;;;;;107.93;65.30;;;;;;;3.04;83.01;99592.69;5050046;28;20040;-21
2021/12/28 05:13:45;;;;;;;98.95;61.85;;;;;;;1.96;84.69;99581.47;5049961;28;20415;-22
2021/12/28 05:16:14;;;;;;;91.80;55.65;;;;;;;1.67;85.92;99583.94;5048168;28;20184;-21
2021/12/28 05:18:39;;;;;;;92.13;55.30;;;;;;;1.75;87.23;99602.28;5049981;28;20119;-21
2021/12/28 05:21:05;;;;;;;94.18;55.30;;;;;;;1.72;86.08;99571.91;5050173;28;20040;-22
2021/12/28 05:23:30;;;;;;;90.75;57.10;;;;;;;2.13;85.49;99607.66;5049807;28;20043;-21
2021/12/28 05:25:56;;;;;;;91.07;54.83;;;;;;;1.98;85.51;99582.13;5049536;28;20544;-21
2021/12/28 05:28:21;;;;;;;94.25;57.55;;;;;;;2.31;84.70;99607.34;5048666;28;20071;-21
2021/12/28 05:30:46;;;;;;;88.90;56.35;;;;;;;2.41;83.26;99571.06;5067800;28;20056;-21
2021/12/28 05:33:12;;;;;;;91.45;54.97;;;;;;;1.96;85.13;99588.53;5069613;28;20033;-21
2021/12/28 05:35:37;;;;;;;93.32;57.25;;;;;;;2.14;85.59;99611.91;5069661;28;20060;-21
2021/12/28 05:38:03;;;;;;;101.47;57.83;;;;;;;2.45;83.61;99601.31;5069290;28;20040;-21
2021/12/28 05:40:28;;;;;;;91.93;56.17;;;;;;;2.42;83.35;99591.94;5069587;28;20032;-21
2021/12/28 05:42:54;;;;;;;91.28;55.13;;;;;;;2.38;84.54;99611.72;5069410;28;20515;-21
2021/12/28 05:45:19;;;;;;;110.57;61.28;;;;;;;2.65;84.23;99613.97;5069422;28;20032;-21
2021/12/28 05:47:45;;;;;;;167.40;82.20;;;;;;;2.91;82.93;99609.13;5051430;28;20563;-21
2021/12/28 05:50:10;;;;;;;218.82;98.75;;;;;;;2.92;82.02;99615.19;5069473;28;20416;-21
2021/12/28 05:52:36;;;;;;;283.75;127.90;;;;;;;2.29;85.22;99604.91;5069331;28;20056;-21
2021/12/28 05:55:02;;;;;;;95.55;58.25;;;;;;;2.05;86.43;99597.19;5069443;28;20039;-21
2021/12/28 05:57:28;;;;;;;92.93;55.28;;;;;;;2.51;85.12;99629.53;5069255;28;20032;-22
2021/12/28 05:59:53;;;;;;;84.65;54.92;;;;;;;2.12;85.99;99632.31;5051110;28;20040;-20
2021/12/28 06:02:19;;;;;;;95.57;54.42;;;;;;;1.87;87.93;99610.63;5069258;28;20028;-20
2021/12/28 06:04:44;;;;;;;87.97;54.58;;;;;;;1.86;88.09;99630.00;5069056;28;20059;-20
2021/12/28 06:07:09;;;;;;;94.30;56.00;;;;;;;2.31;86.59;99613.44;5069533;28;20035;-21
2021/12/28 06:09:35;;;;;;;96.90;57.45;;;;;;;2.79;84.81;99632.44;5068971;28;20389;-21
2021/12/28 06:12:00;;;;;;;103.75;61.25;;;;;;;3.25;82.29;99636.78;5068846;28;20086;-21
2021/12/28 06:14:26;;;;;;;97.57;58.50;;;;;;;3.10;83.70;99634.09;5068847;28;20036;-21
2021/12/28 06:16:51;;;;;;;100.03;58.75;;;;;;;3.26;82.88;99627.84;5068836;28;20032;-21
2021/12/28 06:19:17;;;;;;;108.53;62.10;;;;;;;3.21;84.54;99638.94;5068956;28;20465;-21
2021/12/28 06:21:42;;;;;;;117.32;67.75;;;;;;;3.48;82.67;99607.66;5068518;28;20378;-21
2021/12/28 06:24:08;;;;;;;120.50;70.47;;;;;;;3.73;82.95;99617.88;5068898;28;20066;-21
2021/12/28 06:26:33;;;;;;;125.07;72.05;;;;;;;4.22;81.39;99635.66;5068603;28;20830;-21
2021/12/28 06:28:59;;;;;;;133.18;77.97;;;;;;;4.30;80.50;99632.91;5068443;28;20111;-22
2021/12/28 06:31:28;;;;;;;141.75;81.05;;;;;;;4.12;80.91;99635.16;5068462;28;20862;-21
2021/12/28 06:33:54;;;;;;;140.30;77.70;;;;;;;4.14;82.50;99635.78;5068698;28;20032;-22
2021/12/28 06:36:20;;;;;;;127.53;73.45;;;;;;;3.80;82.85;99602.94;5068859;28;20040;-21
2021/12/28 06:38:45;;;;;;;131.43;76.65;;;;;;;4.34;82.84;99641.28;5068761;28;20354;-21
2021/12/28 06:41:11;;;;;;;145.40;87.47;;;;;;;4.15;82.76;99643.53;5068396;28;20024;-21
2021/12/28 06:43:36;;;;;;;147.30;84.47;;;;;;;4.08;84.68;99645.25;5068224;28;20036;-20
2021/12/28 06:46:02;;;;;;;132.25;80.75;;;;;;;3.97;83.39;99629.94;5068327;28;20028;-21
2021/12/28 06:48:27;;;;;;;122.20;70.35;;;;;;;3.63;85.86;99649.81;5068140;28;20063;-21
2021/12/28 06:50:53;;;;;;;109.43;64.60;;;;;;;3.68;85.88;99649.25;5068195;28;20032;-21
2021/12/28 06:53:18;;;;;;;124.40;72.95;;;;;;;3.88;85.38;99637.13;5068018;28;20033;-21
2021/12/28 06:55:43;;;;;;;138.00;82.00;;;;;;;4.13;83.00;99640.25;5067928;28;20039;-20
2021/12/28 06:58:09;;;;;;;154.73;91.32;;;;;;;3.99;83.05;99622.66;5068120;28;20393;-21
2021/12/28 07:00:34;;;;;;;160.35;96.72;;;;;;;4.25;84.36;99650.31;5068174;28;20033;-21
2021/12/28 07:03:00;;;;;;;243.68;133.35;;;;;;;4.42;83.16;99623.47;5080795;28;20032;-21
2021/12/28 07:05:26;;;;;;;167.85;101.30;;;;;;;4.99;81.18;99637.53;5077264;28;20023;-20
2021/12/28 07:07:51;;;;;;;202.23;121.07;;;;;;;5.08;80.41;99640.84;5059022;28;20036;-21
2021/12/28 07:10:20;;;;;;;147.15;89.25;;;;;;;5.24;79.44;99643.19;5076055;28;20029;-22
2021/12/28 07:12:50;;;;;;;176.10;102.78;;;;;;;5.10;79.44;99612.38;5058042;28;20556;-21
2021/12/28 07:15:19;;;;;;;151.00;91.18;;;;;;;5.48;78.85;99635.78;5060560;28;20043;-22
2021/12/28 07:17:44;;;;;;;142.15;83.95;;;;;;;5.00;80.48;99615.38;5075780;28;20032;-20
2021/12/28 07:20:11;;;;;;;125.45;79.38;;;;;;;5.13;81.30;99638.44;5076546;28;20031;-21
2021/12/28 07:22:36;;;;;;;122.15;75.45;;;;;;;4.99;81.83;99618.22;5059106;28;20112;-22
2021/12/28 07:25:02;;;;;;;119.57;72.68;;;;;;;5.13;82.30;99614.66;5075431;28;20032;-21
2021/12/28 07:27:28;;;;;;;117.43;71.57;;;;;;;5.06;83.58;99634.94;5076653;28;20073;-21
2021/12/28 07:29:53;;;;;;;110.03;64.28;;;;;;;5.31;82.80;99637.09;5076921;28;20048;-23
2021/12/28 07:32:19;;;;;;;100.63;62.30;;;;;;;5.24;83.07;99643.19;5075255;28;20016;-21
2021/12/28 07:34:44;;;;;;;97.57;59.95;;;;;;;5.36;82.86;99632.88;5077207;28;20032;-21
2021/12/28 07:37:10;;;;;;;98.90;59.85;;;;;;;5.40;82.77;99638.59;5058261;28;20039;-21
2021/12/28 07:39:35;;;;;;;98.78;61.03;;;;;;;5.59;81.91;99627.28;5072523;28;20224;-20
2021/12/28 07:42:01;;;;;;;98.05;59.22;;;;;;;5.44;82.90;99621.31;5067735;28;20085;-20
2021/12/28 07:44:26;;;;;;;122.65;66.72;;;;;;;5.79;82.80;99647.72;5067519;28;20028;-21
2021/12/28 07:46:52;;;;;;;149.65;74.55;;;;;;;5.87;81.07;99621.09;5067339;28;20052;-22
2021/12/28 07:49:17;;;;;;;337.05;196.38;;;;;;;6.09;81.46;99642.97;5067535;28;20040;-22
2021/12/28 07:51:43;;;;;;;180.25;106.68;;;;;;;6.28;81.13;99651.97;5066953;28;20020;-21
2021/12/28 07:54:08;;;;;;;273.70;178.02;;;;;;;6.32;80.11;99634.66;5067486;28;20043;-21
2021/12/28 07:56:33;;;;;;;166.50;86.35;;;;;;;6.65;79.13;99647.13;5067220;28;20047;-21
2021/12/28 07:58:59;;;;;;;96.43;58.25;;;;;;;6.48;79.40;99653.81;5067368;28;20090;-21
2021/12/28 08:01:24;;;;;;;119.80;66.85;;;;;;;6.78;79.79;99652.44;5067093;28;20067;-21
2021/12/28 08:03:50;;;;;;;104.65;56.50;;;;;;;6.83;78.28;99657.94;5067327;28;20484;-22
2021/12/28 08:06:15;;;;;;;86.85;54.28;;;;;;;6.35;80.75;99633.44;5067458;28;20033;-21
2021/12/28 08:08:41;;;;;;;93.97;57.20;;;;;;;6.48;82.45;99648.53;5067167;28;20028;-20
2021/12/28 08:11:07;;;;;;;88.45;55.05;;;;;;;6.15;83.19;99633.41;5067210;28;20512;-21
2021/12/28 08:13:32;;;;;;;91.53;53.63;;;;;;;5.83;83.45;99641.03;5066831;28;20032;-21
2021/12/28 08:15:58;;;;;;;99.43;61.80;;;;;;;5.80;86.72;99654.63;5067123;28;20064;-20
2021/12/28 08:18:23;;;;;;;86.57;58.08;;;;;;;5.90;85.99;99646.34;5067181;28;20516;-20
2021/12/28 08:20:48;;;;;;;87.75;54.67;;;;;;;6.19;86.02;99658.44;5067357;28;20036;-21
2021/12/28 08:23:14;;;;;;;87.20;55.45;;;;;;;6.56;82.58;99653.63;5067052;28;20037;-21
2021/12/28 08:25:40;;;;;;;89.63;55.97;;;;;;;6.39;82.01;99635.47;5048636;28;20546;-21
2021/12/28 08:28:06;;;;;;;81.43;53.30;;;;;;;6.55;80.92;99638.75;5067018;28;20063;-20
2021/12/28 08:30:35;;;;;;;87.07;56.22;;;;;;;6.81;82.04;99644.06;5067079;28;20137;-23
2021/12/28 08:33:01;;;;;;;79.15;52.45;;;;;;;6.92;80.53;99620.59;5067056;28;20060;-21
2021/12/28 08:35:27;;;;;;;84.78;55.33;;;;;;;7.18;80.94;99623.22;5066418;28;20040;-20
2021/12/28 08:37:52;;;;;;;86.90;60.40;;;;;;;7.49;80.24;99632.31;5066828;28;20531;-21
2021/12/28 08:40:20;;;;;;;79.15;51.63;;;;;;;7.32;79.52;99631.16;5067108;28;20028;-20
2021/12/28 08:42:45;;;;;;;78.30;48.70;;;;;;;7.36;80.39;99630.53;5067245;28;20033;-21
2021/12/28 08:45:11;;;;;;;78.88;49.85;;;;;;;7.78;78.71;99632.81;5048996;28;20040;-21
2021/12/28 08:47:36;;;;;;;79.75;49.60;;;;;;;8.18;78.21;99627.31;5066735;28;20032;-20
2021/12/28 08:50:02;;;;;;;72.75;48.95;;;;;;;8.09;77.39;99632.06;5067454;28;20036;-21
2021/12/28 08:52:28;;;;;;;76.30;50.55;;;;;;;8.13;76.56;99619.16;5035750;28;20020;-21
2021/12/28 08:54:53;;;;;;;107.05;70.32;;;;;;;8.18;77.25;99636.06;5070274;28;20044;-20
2021/12/28 08:57:19;;;;;;;71.65;48.38;;;;;;;8.30;77.03;99622.13;5070398;28;20036;-20
2021/12/28 08:59:45;;;;;;;76.22;49.13;;;;;;;8.39;78.18;99629.59;5051699;28;20089;-20
2021/12/28 09:02:10;;;;;;;85.85;58.28;;;;;;;8.72;77.68;99615.28;5070043;28;20028;-20
2021/12/28 09:04:43;;;;;;;75.50;49.67;;;;;;;8.55;80.43;99627.50;5070209;28;20035;-21
2021/12/28 09:07:11;;;;;;;75.35;48.97;;;;;;;8.71;77.89;99624.28;5070216;28;20032;-20
2021/12/28 09:09:36;;;;;;;70.38;48.38;;;;;;;9.12;76.65;99612.25;5069727;28;20119;-21
2021/12/28 09:12:02;;;;;;;76.78;51.28;;;;;;;9.34;76.43;99606.50;5069886;28;20519;-21
2021/12/28 09:14:28;;;;;;;70.60;48.47;;;;;;;9.38;75.66;99616.47;5052109;28;20028;-20
2021/12/28 09:16:53;;;;;;;70.85;46.38;;;;;;;8.92;78.27;99619.63;5070152;28;20408;-21
2021/12/28 09:19:19;;;;;;;69.10;45.47;;;;;;;9.19;76.62;99613.00;5070156;28;20035;-21
2021/12/28 09:21:44;;;;;;;64.53;44.70;;;;;;;9.45;77.09;99606.56;5051698;28;20028;-20
2021/12/28 09:24:10;;;;;;;66.15;44.35;;;;;;;9.69;75.62;99603.22;5069768;28;20507;-21
2021/12/28 09:26:35;;;;;;;67.38;42.95;;;;;;;9.56;75.10;99591.72;5069946;28;20070;-21
2021/12/28 09:29:01;;;;;;;62.83;42.92;;;;;;;9.95;74.89;99608.22;5069586;28;20049;-20
2021/12/28 09:31:26;;;;;;;63.20;42.60;;;;;;;10.05;75.41;99600.50;5069389;28;20531;-21
2021/12/28 09:33:52;;;;;;;59.08;41.33;;;;;;;10.28;73.68;99598.94;5069927;28;20039;-21
2021/12/28 09:36:18;;;;;;;57.47;38.58;;;;;;;10.57;72.61;99585.78;5051272;28;20036;-21
2021/12/28 09:38:44;;;;;;;48.17;33.47;;;;;;;11.15;70.98;99592.97;5069793;28;20032;-20
2021/12/28 09:41:09;;;;;;;46.90;32.08;;;;;;;11.14;69.14;99572.66;5076885;28;20031;-20
2021/12/28 09:43:36;;;;;;;49.30;32.67;;;;;;;11.18;69.83;99563.16;5072620;28;20115;-20
2021/12/28 09:46:01;;;;;;;45.17;31.30;;;;;;;11.35;68.97;99573.09;5069423;28;20033;-21
2021/12/28 09:48:27;;;;;;;48.25;38.00;;;;;;;11.64;68.73;99573.94;5079687;28;20043;-20
2021/12/28 09:50:52;;;;;;;44.45;30.63;;;;;;;12.14;68.17;99567.13;5079923;28;20027;-20
2021/12/28 09:53:18;;;;;;;51.83;38.75;;;;;;;12.50;66.36;99548.97;5078710;28;20029;-20
2021/12/28 09:55:43;;;;;;;42.03;32.40;;;;;;;12.81;66.18;99556.41;5078153;28;20423;-21
2021/12/28 09:58:09;;;;;;;38.97;27.17;;;;;;;12.97;65.32;99556.63;5076634;28;20036;-21
2021/12/28 10:00:34;;;;;;;40.33;30.50;;;;;;;13.17;65.65;99548.84;5074279;28;20125;-20
2021/12/28 10:03:00;;;;;;;40.95;30.13;;;;;;;13.29;64.75;99555.97;5062625;28;20082;-21
2021/12/28 10:05:26;;;;;;;40.10;29.38;;;;;;;13.26;65.44;99536.66;5059774;28;20024;-20
2021/12/28 10:07:56;;;;;;;65.45;54.03;;;;;;;13.69;64.56;99533.41;5077047;28;20047;-20
2021/12/28 10:10:25;;;;;;;52.63;40.67;;;;;;;13.75;65.07;99533.22;5073803;28;20048;-20
2021/12/28 10:12:53;;;;;;;44.00;33.40;;;;;;;13.91;64.60;99536.84;5074996;28;20028;-20
2021/12/28 10:15:21;;;;;;;45.40;36.58;;;;;;;14.34;63.61;99535.06;5058697;28;20024;-24
2021/12/28 10:17:47;;;;;;;46.15;35.13;;;;;;;14.43;62.61;99522.81;5076791;28;20040;-21
2021/12/28 10:20:15;;;;;;;42.10;30.35;;;;;;;14.73;62.43;99529.47;5077058;28;20032;-21
2021/12/28 10:22:43;;;;;;;;;;;;;;;14.32;65.24;99531.81;5089662;28;20028;-20
2021/12/28 10:25:18;;;;;;;43.17;29.25;;;;;;;14.11;65.30;99533.53;5089156;28;19931;-21
2021/12/28 10:27:45;;;;;;;36.47;27.42;;;;;;;14.17;64.17;99512.94;5071360;28;20040;-20
2021/12/28 10:30:17;;;;;;;35.65;24.25;;;;;;;14.11;64.23;99527.38;5089017;28;20056;-20
2021/12/28 10:32:44;;;;;;;33.65;24.33;;;;;;;14.12;64.66;99527.13;5088576;28;20438;-21
2021/12/28 10:35:15;;;;;;;33.85;24.80;;;;;;;13.89;64.92;99520.19;5088732;28;20063;-20
2021/12/28 10:37:44;;;;;;;32.22;24.38;;;;;;;13.97;64.48;99527.78;5070357;28;20032;-21
2021/12/28 10:40:11;;;;;;;34.80;24.33;;;;;;;14.03;63.25;99508.00;5088478;28;20111;-21
2021/12/28 10:42:40;;;;;;;37.85;26.50;;;;;;;14.12;63.54;99512.88;5088998;28;20051;-21
2021/12/28 10:45:07;;;;;;;54.58;35.75;;;;;;;14.21;64.53;99514.03;5088465;28;20104;-20
2021/12/28 10:47:33;;;;;;;48.58;35.83;;;;;;;14.13;64.37;99522.56;5088233;28;20035;-20
2021/12/28 10:50:01;;;;;;;42.28;30.45;;;;;;;14.00;64.93;99521.91;5088639;28;20039;-21
2021/12/28 10:52:36;;;;;;;41.83;28.70;;;;;;;13.63;65.85;99514.59;5088559;28;20031;-20
2021/12/28 10:55:24;;;;;;;43.28;30.80;;;;;;;13.57;66.05;99514.81;5088383;28;20707;-20
2021/12/28 10:57:50;;;;;;;35.85;26.10;;;;;;;13.31;66.68;99500.31;5088220;28;20020;-20
2021/12/28 11:00:26;;;;;;;38.67;29.23;;;;;;;13.23;67.21;99486.28;5088561;28;20385;-20
2021/12/28 11:03:10;;;;;;;40.55;27.67;;;;;;;13.34;67.79;99494.44;5088837;28;20024;-20
2021/12/28 11:05:36;;;;;;;40.20;26.95;;;;;;;13.25;68.00;99488.72;5088258;28;20055;-20
2021/12/28 11:08:02;;;;;;;36.63;26.33;;;;;;;13.45;67.68;99501.56;5087967;28;20024;-21
2021/12/28 11:10:28;;;;;;;35.45;25.88;;;;;;;13.22;68.22;99500.72;5088439;28;20901;-21
2021/12/28 11:12:54;;;;;;;36.33;25.77;;;;;;;13.45;68.04;99502.34;5087749;28;20092;-21
2021/12/28 11:15:24;;;;;;;36.25;26.15;;;;;;;13.48;68.00;99506.38;5088194;28;20031;-21